sensor_id;sensor_type;location;lat;lon;timestamp;P1;durP1;ratioP1;P2;durP2;ratioP2
53961;SDS011;39868;53.398;6.564;2022-08-20T00:01:41;6.63;;;2.80;;
53961;SDS011;39868;53.398;6.564;2022-08-20T00:04:09;3.97;;;2.72;;
53961;SDS011;39868;53.398;6.564;2022-08-20T00:06:36;4.57;;;2.67;;
53961;SDS011;39868;53.398;6.564;2022-08-20T00:09:06;6.22;;;2.72;;
53961;SDS011;39868;53.398;6.564;2022-08-20T00:11:34;5.07;;;2.58;;
53961;SDS011;39868;53.398;6.564;2022-08-20T00:14:03;4.40;;;2.50;;
53961;SDS011;39868;53.398;6.564;2022-08-20T00:16:32;6.90;;;2.95;;
53961;SDS011;39868;53.398;6.564;2022-08-20T00:19:03;11.25;;;2.95;;
53961;SDS011;39868;53.398;6.564;2022-08-20T00:21:34;7.32;;;2.80;;
53961;SDS011;39868;53.398;6.564;2022-08-20T00:24:02;4.25;;;2.50;;
53961;SDS011;39868;53.398;6.564;2022-08-20T00:26:31;7.65;;;3.28;;
53961;SDS011;39868;53.398;6.564;2022-08-20T00:28:59;5.53;;;2.80;;
53961;SDS011;39868;53.398;6.564;2022-08-20T00:31:26;4.43;;;3.03;;
53961;SDS011;39868;53.398;6.564;2022-08-20T00:33:54;5.28;;;3.15;;
53961;SDS011;39868;53.398;6.564;2022-08-20T00:36:22;7.10;;;3.10;;
53961;SDS011;39868;53.398;6.564;2022-08-20T00:38:58;11.05;;;3.35;;
53961;SDS011;39868;53.398;6.564;2022-08-20T00:41:26;3.67;;;2.58;;
53961;SDS011;39868;53.398;6.564;2022-08-20T00:44:13;5.05;;;2.83;;
53961;SDS011;39868;53.398;6.564;2022-08-20T00:46:45;4.43;;;2.75;;
53961;SDS011;39868;53.398;6.564;2022-08-20T00:49:16;7.22;;;3.17;;
53961;SDS011;39868;53.398;6.564;2022-08-20T00:51:52;5.82;;;3.08;;
53961;SDS011;39868;53.398;6.564;2022-08-20T00:54:40;5.10;;;2.88;;
53961;SDS011;39868;53.398;6.564;2022-08-20T01:00:31;5.53;;;2.80;;
53961;SDS011;39868;53.398;6.564;2022-08-20T01:03:04;4.53;;;2.88;;
53961;SDS011;39868;53.398;6.564;2022-08-20T01:05:37;4.88;;;3.08;;
53961;SDS011;39868;53.398;6.564;2022-08-20T01:08:07;9.23;;;3.33;;
53961;SDS011;39868;53.398;6.564;2022-08-20T01:10:37;7.65;;;2.92;;
53961;SDS011;39868;53.398;6.564;2022-08-20T01:13:07;6.35;;;2.65;;
53961;SDS011;39868;53.398;6.564;2022-08-20T01:15:38;8.88;;;2.30;;
53961;SDS011;39868;53.398;6.564;2022-08-20T01:18:10;4.82;;;1.98;;
53961;SDS011;39868;53.398;6.564;2022-08-20T01:20:51;6.53;;;2.47;;
53961;SDS011;39868;53.398;6.564;2022-08-20T01:26:42;7.85;;;2.78;;
53961;SDS011;39868;53.398;6.564;2022-08-20T01:29:13;6.57;;;3.37;;
53961;SDS011;39868;53.398;6.564;2022-08-20T01:31:46;8.70;;;2.85;;
53961;SDS011;39868;53.398;6.564;2022-08-20T01:34:15;7.13;;;3.05;;
53961;SDS011;39868;53.398;6.564;2022-08-20T01:36:53;6.50;;;2.63;;
53961;SDS011;39868;53.398;6.564;2022-08-20T01:39:24;4.65;;;2.40;;
53961;SDS011;39868;53.398;6.564;2022-08-20T01:44:35;5.20;;;2.55;;
53961;SDS011;39868;53.398;6.564;2022-08-20T01:47:15;7.93;;;2.92;;
53961;SDS011;39868;53.398;6.564;2022-08-20T01:49:56;8.25;;;2.90;;
53961;SDS011;39868;53.398;6.564;2022-08-20T01:52:28;6.82;;;2.50;;
53961;SDS011;39868;53.398;6.564;2022-08-20T01:55:00;5.45;;;2.47;;
53961;SDS011;39868;53.398;6.564;2022-08-20T01:57:28;5.80;;;2.28;;
53961;SDS011;39868;53.398;6.564;2022-08-20T01:59:56;5.88;;;2.17;;
53961;SDS011;39868;53.398;6.564;2022-08-20T02:02:24;5.35;;;2.20;;
53961;SDS011;39868;53.398;6.564;2022-08-20T02:04:52;7.70;;;2.20;;
53961;SDS011;39868;53.398;6.564;2022-08-20T02:07:20;5.95;;;2.35;;
53961;SDS011;39868;53.398;6.564;2022-08-20T02:09:49;3.53;;;1.85;;
53961;SDS011;39868;53.398;6.564;2022-08-20T02:12:17;8.30;;;2.38;;
53961;SDS011;39868;53.398;6.564;2022-08-20T02:14:49;9.57;;;2.40;;
53961;SDS011;39868;53.398;6.564;2022-08-20T02:17:19;4.60;;;1.98;;
53961;SDS011;39868;53.398;6.564;2022-08-20T02:19:50;5.05;;;2.55;;
53961;SDS011;39868;53.398;6.564;2022-08-20T02:25:28;5.00;;;2.08;;
53961;SDS011;39868;53.398;6.564;2022-08-20T02:27:59;5.43;;;2.53;;
53961;SDS011;39868;53.398;6.564;2022-08-20T02:30:31;2.63;;;2.10;;
53961;SDS011;39868;53.398;6.564;2022-08-20T02:35:30;7.32;;;2.15;;
53961;SDS011;39868;53.398;6.564;2022-08-20T02:37:59;4.55;;;2.55;;
53961;SDS011;39868;53.398;6.564;2022-08-20T02:40:28;3.75;;;2.45;;
53961;SDS011;39868;53.398;6.564;2022-08-20T02:42:57;6.13;;;3.22;;
53961;SDS011;39868;53.398;6.564;2022-08-20T02:45:26;7.38;;;2.22;;
53961;SDS011;39868;53.398;6.564;2022-08-20T02:47:55;5.70;;;2.08;;
53961;SDS011;39868;53.398;6.564;2022-08-20T02:50:24;5.10;;;2.00;;
53961;SDS011;39868;53.398;6.564;2022-08-20T02:52:53;3.83;;;2.20;;
53961;SDS011;39868;53.398;6.564;2022-08-20T02:55:21;5.22;;;2.42;;
53961;SDS011;39868;53.398;6.564;2022-08-20T02:57:54;3.35;;;2.00;;
53961;SDS011;39868;53.398;6.564;2022-08-20T03:00:25;5.80;;;2.08;;
53961;SDS011;39868;53.398;6.564;2022-08-20T03:03:07;4.43;;;2.00;;
53961;SDS011;39868;53.398;6.564;2022-08-20T03:05:37;4.03;;;1.67;;
53961;SDS011;39868;53.398;6.564;2022-08-20T03:08:06;2.25;;;1.42;;
53961;SDS011;39868;53.398;6.564;2022-08-20T03:10:36;3.92;;;1.83;;
53961;SDS011;39868;53.398;6.564;2022-08-20T03:13:06;4.13;;;1.73;;
53961;SDS011;39868;53.398;6.564;2022-08-20T03:15:39;4.25;;;1.55;;
53961;SDS011;39868;53.398;6.564;2022-08-20T03:18:08;3.88;;;1.40;;
53961;SDS011;39868;53.398;6.564;2022-08-20T03:20:36;4.25;;;1.65;;
53961;SDS011;39868;53.398;6.564;2022-08-20T03:23:05;4.32;;;1.63;;
53961;SDS011;39868;53.398;6.564;2022-08-20T03:25:32;2.85;;;1.80;;
53961;SDS011;39868;53.398;6.564;2022-08-20T03:28:00;4.88;;;1.73;;
53961;SDS011;39868;53.398;6.564;2022-08-20T03:30:28;4.05;;;1.60;;
53961;SDS011;39868;53.398;6.564;2022-08-20T03:32:57;6.18;;;1.60;;
53961;SDS011;39868;53.398;6.564;2022-08-20T03:35:26;7.38;;;1.50;;
53961;SDS011;39868;53.398;6.564;2022-08-20T03:37:55;3.17;;;1.15;;
53961;SDS011;39868;53.398;6.564;2022-08-20T03:40:24;10.10;;;2.17;;
53961;SDS011;39868;53.398;6.564;2022-08-20T03:42:55;5.95;;;1.40;;
53961;SDS011;39868;53.398;6.564;2022-08-20T03:45:25;6.63;;;1.38;;
53961;SDS011;39868;53.398;6.564;2022-08-20T03:47:53;4.10;;;1.25;;
53961;SDS011;39868;53.398;6.564;2022-08-20T03:50:23;6.65;;;1.65;;
53961;SDS011;39868;53.398;6.564;2022-08-20T03:52:52;6.07;;;1.52;;
53961;SDS011;39868;53.398;6.564;2022-08-20T03:55:21;3.75;;;1.30;;
53961;SDS011;39868;53.398;6.564;2022-08-20T03:57:51;2.03;;;1.02;;
53961;SDS011;39868;53.398;6.564;2022-08-20T04:00:25;6.32;;;2.13;;
53961;SDS011;39868;53.398;6.564;2022-08-20T04:02:56;2.95;;;1.30;;
53961;SDS011;39868;53.398;6.564;2022-08-20T04:05:24;3.08;;;1.50;;
53961;SDS011;39868;53.398;6.564;2022-08-20T04:07:54;3.88;;;1.65;;
53961;SDS011;39868;53.398;6.564;2022-08-20T04:10:28;3.13;;;1.60;;
53961;SDS011;39868;53.398;6.564;2022-08-20T04:12:56;1.45;;;1.20;;
53961;SDS011;39868;53.398;6.564;2022-08-20T04:15:24;3.97;;;1.23;;
53961;SDS011;39868;53.398;6.564;2022-08-20T04:17:53;2.95;;;1.20;;
53961;SDS011;39868;53.398;6.564;2022-08-20T04:20:21;2.20;;;1.27;;
53961;SDS011;39868;53.398;6.564;2022-08-20T04:22:52;4.03;;;1.50;;
53961;SDS011;39868;53.398;6.564;2022-08-20T04:25:25;3.78;;;1.20;;
53961;SDS011;39868;53.398;6.564;2022-08-20T04:27:56;2.97;;;1.30;;
53961;SDS011;39868;53.398;6.564;2022-08-20T04:30:25;2.83;;;1.40;;
53961;SDS011;39868;53.398;6.564;2022-08-20T04:32:52;3.20;;;1.40;;
53961;SDS011;39868;53.398;6.564;2022-08-20T04:35:21;3.88;;;1.52;;
53961;SDS011;39868;53.398;6.564;2022-08-20T04:37:57;2.97;;;1.38;;
53961;SDS011;39868;53.398;6.564;2022-08-20T04:40:32;1.42;;;1.30;;
53961;SDS011;39868;53.398;6.564;2022-08-20T04:43:20;2.28;;;1.23;;
53961;SDS011;39868;53.398;6.564;2022-08-20T04:45:51;2.25;;;1.42;;
53961;SDS011;39868;53.398;6.564;2022-08-20T04:48:21;3.30;;;1.35;;
53961;SDS011;39868;53.398;6.564;2022-08-20T04:50:50;4.00;;;1.45;;
53961;SDS011;39868;53.398;6.564;2022-08-20T04:53:20;1.58;;;1.40;;
53961;SDS011;39868;53.398;6.564;2022-08-20T04:55:52;1.60;;;1.23;;
53961;SDS011;39868;53.398;6.564;2022-08-20T04:58:23;1.83;;;1.42;;
53961;SDS011;39868;53.398;6.564;2022-08-20T05:01:01;1.38;;;1.17;;
53961;SDS011;39868;53.398;6.564;2022-08-20T05:03:33;4.93;;;1.63;;
53961;SDS011;39868;53.398;6.564;2022-08-20T05:06:01;3.70;;;1.60;;
53961;SDS011;39868;53.398;6.564;2022-08-20T05:08:32;3.83;;;1.42;;
53961;SDS011;39868;53.398;6.564;2022-08-20T05:11:01;2.70;;;1.27;;
53961;SDS011;39868;53.398;6.564;2022-08-20T05:13:49;2.15;;;1.42;;
53961;SDS011;39868;53.398;6.564;2022-08-20T05:16:18;5.25;;;1.30;;
53961;SDS011;39868;53.398;6.564;2022-08-20T05:18:46;3.90;;;1.63;;
53961;SDS011;39868;53.398;6.564;2022-08-20T05:21:18;2.67;;;1.45;;
53961;SDS011;39868;53.398;6.564;2022-08-20T05:23:47;4.93;;;1.42;;
53961;SDS011;39868;53.398;6.564;2022-08-20T05:26:15;3.15;;;1.38;;
53961;SDS011;39868;53.398;6.564;2022-08-20T05:28:46;2.22;;;1.38;;
53961;SDS011;39868;53.398;6.564;2022-08-20T05:31:25;3.92;;;1.27;;
53961;SDS011;39868;53.398;6.564;2022-08-20T05:34:00;3.65;;;1.52;;
53961;SDS011;39868;53.398;6.564;2022-08-20T05:36:29;4.28;;;1.77;;
53961;SDS011;39868;53.398;6.564;2022-08-20T05:38:57;2.13;;;1.20;;
53961;SDS011;39868;53.398;6.564;2022-08-20T05:41:25;3.47;;;1.20;;
53961;SDS011;39868;53.398;6.564;2022-08-20T05:43:57;3.17;;;1.55;;
53961;SDS011;39868;53.398;6.564;2022-08-20T05:46:28;2.33;;;1.30;;
53961;SDS011;39868;53.398;6.564;2022-08-20T05:48:58;2.30;;;1.80;;
53961;SDS011;39868;53.398;6.564;2022-08-20T05:51:28;3.20;;;1.40;;
53961;SDS011;39868;53.398;6.564;2022-08-20T05:53:56;4.63;;;1.42;;
53961;SDS011;39868;53.398;6.564;2022-08-20T05:56:27;2.30;;;1.27;;
53961;SDS011;39868;53.398;6.564;2022-08-20T05:58:57;2.72;;;1.20;;
53961;SDS011;39868;53.398;6.564;2022-08-20T06:01:28;3.53;;;1.40;;
53961;SDS011;39868;53.398;6.564;2022-08-20T06:04:00;3.63;;;1.38;;
53961;SDS011;39868;53.398;6.564;2022-08-20T06:06:47;2.75;;;1.25;;
53961;SDS011;39868;53.398;6.564;2022-08-20T06:09:18;4.80;;;1.77;;
53961;SDS011;39868;53.398;6.564;2022-08-20T06:12:01;2.78;;;1.20;;
53961;SDS011;39868;53.398;6.564;2022-08-20T06:14:31;2.70;;;1.13;;
53961;SDS011;39868;53.398;6.564;2022-08-20T06:17:05;1.92;;;0.95;;
53961;SDS011;39868;53.398;6.564;2022-08-20T06:19:39;3.88;;;1.30;;
53961;SDS011;39868;53.398;6.564;2022-08-20T06:22:10;8.68;;;1.85;;
53961;SDS011;39868;53.398;6.564;2022-08-20T06:24:46;3.78;;;1.83;;
53961;SDS011;39868;53.398;6.564;2022-08-20T06:27:14;3.30;;;1.67;;
53961;SDS011;39868;53.398;6.564;2022-08-20T06:29:42;2.42;;;1.40;;
53961;SDS011;39868;53.398;6.564;2022-08-20T06:32:10;1.42;;;1.33;;
53961;SDS011;39868;53.398;6.564;2022-08-20T06:34:38;2.35;;;1.63;;
53961;SDS011;39868;53.398;6.564;2022-08-20T06:37:23;3.97;;;1.63;;
53961;SDS011;39868;53.398;6.564;2022-08-20T06:40:04;1.88;;;1.58;;
53961;SDS011;39868;53.398;6.564;2022-08-20T06:42:34;2.20;;;1.58;;
53961;SDS011;39868;53.398;6.564;2022-08-20T06:45:02;3.30;;;1.67;;
53961;SDS011;39868;53.398;6.564;2022-08-20T06:47:33;2.15;;;1.50;;
53961;SDS011;39868;53.398;6.564;2022-08-20T06:50:00;2.85;;;1.70;;
53961;SDS011;39868;53.398;6.564;2022-08-20T06:52:28;3.60;;;1.58;;
53961;SDS011;39868;53.398;6.564;2022-08-20T06:55:16;4.18;;;2.00;;
53961;SDS011;39868;53.398;6.564;2022-08-20T06:57:43;3.47;;;1.85;;
53961;SDS011;39868;53.398;6.564;2022-08-20T07:00:14;3.50;;;1.88;;
53961;SDS011;39868;53.398;6.564;2022-08-20T07:02:44;1.60;;;1.50;;
53961;SDS011;39868;53.398;6.564;2022-08-20T07:05:13;3.20;;;1.90;;
53961;SDS011;39868;53.398;6.564;2022-08-20T07:07:45;3.63;;;1.80;;
53961;SDS011;39868;53.398;6.564;2022-08-20T07:10:17;3.67;;;1.90;;
53961;SDS011;39868;53.398;6.564;2022-08-20T07:12:46;6.20;;;1.85;;
53961;SDS011;39868;53.398;6.564;2022-08-20T07:15:16;4.10;;;1.75;;
53961;SDS011;39868;53.398;6.564;2022-08-20T07:17:49;2.40;;;1.70;;
53961;SDS011;39868;53.398;6.564;2022-08-20T07:20:26;3.70;;;1.75;;
53961;SDS011;39868;53.398;6.564;2022-08-20T07:22:54;4.13;;;1.50;;
53961;SDS011;39868;53.398;6.564;2022-08-20T07:25:22;2.20;;;1.60;;
53961;SDS011;39868;53.398;6.564;2022-08-20T07:27:50;4.55;;;1.60;;
53961;SDS011;39868;53.398;6.564;2022-08-20T07:30:24;4.03;;;1.83;;
53961;SDS011;39868;53.398;6.564;2022-08-20T07:33:24;2.88;;;1.70;;
53961;SDS011;39868;53.398;6.564;2022-08-20T07:35:57;3.40;;;1.70;;
53961;SDS011;39868;53.398;6.564;2022-08-20T07:41:00;3.03;;;1.65;;
53961;SDS011;39868;53.398;6.564;2022-08-20T07:43:30;4.55;;;1.90;;
53961;SDS011;39868;53.398;6.564;2022-08-20T07:45:59;4.47;;;1.50;;
53961;SDS011;39868;53.398;6.564;2022-08-20T07:48:29;2.83;;;1.60;;
53961;SDS011;39868;53.398;6.564;2022-08-20T07:50:58;4.18;;;1.80;;
53961;SDS011;39868;53.398;6.564;2022-08-20T07:53:29;4.32;;;1.40;;
53961;SDS011;39868;53.398;6.564;2022-08-20T07:58:31;3.17;;;1.50;;
53961;SDS011;39868;53.398;6.564;2022-08-20T08:01:03;3.95;;;1.70;;
53961;SDS011;39868;53.398;6.564;2022-08-20T08:03:34;2.53;;;1.17;;
53961;SDS011;39868;53.398;6.564;2022-08-20T08:06:20;5.22;;;1.50;;
53961;SDS011;39868;53.398;6.564;2022-08-20T08:09:10;3.80;;;1.10;;
53961;SDS011;39868;53.398;6.564;2022-08-20T08:11:40;1.40;;;1.30;;
53961;SDS011;39868;53.398;6.564;2022-08-20T08:14:15;2.67;;;1.35;;
53961;SDS011;39868;53.398;6.564;2022-08-20T08:16:49;3.97;;;1.23;;
53961;SDS011;39868;53.398;6.564;2022-08-20T08:19:18;4.82;;;1.45;;
53961;SDS011;39868;53.398;6.564;2022-08-20T08:21:47;2.42;;;1.30;;
53961;SDS011;39868;53.398;6.564;2022-08-20T08:24:15;3.28;;;1.40;;
53961;SDS011;39868;53.398;6.564;2022-08-20T08:26:48;5.00;;;1.23;;
53961;SDS011;39868;53.398;6.564;2022-08-20T08:29:15;2.80;;;1.45;;
53961;SDS011;39868;53.398;6.564;2022-08-20T08:31:43;1.75;;;0.95;;
53961;SDS011;39868;53.398;6.564;2022-08-20T08:34:11;6.03;;;1.20;;
53961;SDS011;39868;53.398;6.564;2022-08-20T08:36:39;2.75;;;1.52;;
53961;SDS011;39868;53.398;6.564;2022-08-20T08:39:09;2.15;;;1.20;;
53961;SDS011;39868;53.398;6.564;2022-08-20T08:41:40;2.42;;;1.38;;
53961;SDS011;39868;53.398;6.564;2022-08-20T08:44:19;4.03;;;1.23;;
53961;SDS011;39868;53.398;6.564;2022-08-20T08:46:53;3.25;;;1.40;;
53961;SDS011;39868;53.398;6.564;2022-08-20T08:49:25;4.00;;;1.48;;
53961;SDS011;39868;53.398;6.564;2022-08-20T08:54:45;4.75;;;1.73;;
53961;SDS011;39868;53.398;6.564;2022-08-20T08:57:16;1.55;;;1.20;;
53961;SDS011;39868;53.398;6.564;2022-08-20T08:59:44;4.00;;;1.65;;
53961;SDS011;39868;53.398;6.564;2022-08-20T09:02:31;3.30;;;1.35;;
53961;SDS011;39868;53.398;6.564;2022-08-20T09:05:00;2.90;;;1.25;;
53961;SDS011;39868;53.398;6.564;2022-08-20T09:07:30;2.03;;;1.30;;
53961;SDS011;39868;53.398;6.564;2022-08-20T09:09:59;4.97;;;1.50;;
53961;SDS011;39868;53.398;6.564;2022-08-20T09:12:28;2.00;;;1.50;;
53961;SDS011;39868;53.398;6.564;2022-08-20T09:14:55;2.75;;;1.30;;
53961;SDS011;39868;53.398;6.564;2022-08-20T09:17:23;4.05;;;1.38;;
53961;SDS011;39868;53.398;6.564;2022-08-20T09:19:51;3.70;;;1.42;;
53961;SDS011;39868;53.398;6.564;2022-08-20T09:22:20;2.83;;;1.35;;
53961;SDS011;39868;53.398;6.564;2022-08-20T09:24:51;6.00;;;1.55;;
53961;SDS011;39868;53.398;6.564;2022-08-20T09:27:19;1.98;;;1.52;;
53961;SDS011;39868;53.398;6.564;2022-08-20T09:29:46;3.13;;;1.50;;
53961;SDS011;39868;53.398;6.564;2022-08-20T09:32:16;3.08;;;1.48;;
53961;SDS011;39868;53.398;6.564;2022-08-20T09:34:47;3.45;;;1.48;;
53961;SDS011;39868;53.398;6.564;2022-08-20T09:37:23;4.55;;;2.00;;
53961;SDS011;39868;53.398;6.564;2022-08-20T09:39:53;5.47;;;1.67;;
53961;SDS011;39868;53.398;6.564;2022-08-20T09:42:23;4.20;;;1.48;;
53961;SDS011;39868;53.398;6.564;2022-08-20T09:44:54;3.58;;;1.55;;
53961;SDS011;39868;53.398;6.564;2022-08-20T09:47:21;4.38;;;1.70;;
53961;SDS011;39868;53.398;6.564;2022-08-20T09:49:49;2.63;;;1.48;;
53961;SDS011;39868;53.398;6.564;2022-08-20T09:52:19;4.40;;;1.30;;
53961;SDS011;39868;53.398;6.564;2022-08-20T09:54:50;3.72;;;1.55;;
53961;SDS011;39868;53.398;6.564;2022-08-20T09:57:20;3.42;;;1.70;;
53961;SDS011;39868;53.398;6.564;2022-08-20T09:59:50;5.45;;;1.70;;
53961;SDS011;39868;53.398;6.564;2022-08-20T10:02:37;2.80;;;1.42;;
53961;SDS011;39868;53.398;6.564;2022-08-20T10:05:06;4.65;;;1.50;;
53961;SDS011;39868;53.398;6.564;2022-08-20T10:07:38;5.30;;;1.60;;
53961;SDS011;39868;53.398;6.564;2022-08-20T10:10:07;7.18;;;2.08;;
53961;SDS011;39868;53.398;6.564;2022-08-20T10:12:37;6.43;;;1.50;;
53961;SDS011;39868;53.398;6.564;2022-08-20T10:15:07;4.88;;;1.70;;
53961;SDS011;39868;53.398;6.564;2022-08-20T10:17:36;3.70;;;1.77;;
53961;SDS011;39868;53.398;6.564;2022-08-20T10:20:06;5.10;;;2.15;;
53961;SDS011;39868;53.398;6.564;2022-08-20T10:22:36;5.45;;;2.25;;
53961;SDS011;39868;53.398;6.564;2022-08-20T10:25:04;4.20;;;1.83;;
53961;SDS011;39868;53.398;6.564;2022-08-20T10:27:32;4.10;;;1.80;;
53961;SDS011;39868;53.398;6.564;2022-08-20T10:30:03;4.70;;;2.15;;
53961;SDS011;39868;53.398;6.564;2022-08-20T10:32:32;3.45;;;1.90;;
53961;SDS011;39868;53.398;6.564;2022-08-20T10:34:59;3.67;;;2.00;;
53961;SDS011;39868;53.398;6.564;2022-08-20T10:37:27;5.93;;;2.20;;
53961;SDS011;39868;53.398;6.564;2022-08-20T10:39:55;2.55;;;1.95;;
53961;SDS011;39868;53.398;6.564;2022-08-20T10:42:23;4.13;;;2.28;;
53961;SDS011;39868;53.398;6.564;2022-08-20T10:44:50;4.80;;;2.35;;
53961;SDS011;39868;53.398;6.564;2022-08-20T10:47:22;3.20;;;1.90;;
53961;SDS011;39868;53.398;6.564;2022-08-20T10:49:52;2.78;;;2.08;;
53961;SDS011;39868;53.398;6.564;2022-08-20T10:52:22;3.13;;;1.80;;
53961;SDS011;39868;53.398;6.564;2022-08-20T10:54:50;4.45;;;2.40;;
53961;SDS011;39868;53.398;6.564;2022-08-20T10:57:20;3.25;;;1.88;;
53961;SDS011;39868;53.398;6.564;2022-08-20T10:59:50;3.50;;;1.80;;
53961;SDS011;39868;53.398;6.564;2022-08-20T11:02:19;2.85;;;2.00;;
53961;SDS011;39868;53.398;6.564;2022-08-20T11:04:48;6.25;;;2.08;;
53961;SDS011;39868;53.398;6.564;2022-08-20T11:07:17;6.57;;;1.90;;
53961;SDS011;39868;53.398;6.564;2022-08-20T11:10:16;2.58;;;1.50;;
53961;SDS011;39868;53.398;6.564;2022-08-20T11:12:43;6.00;;;2.53;;
53961;SDS011;39868;53.398;6.564;2022-08-20T11:15:12;5.38;;;1.70;;
53961;SDS011;39868;53.398;6.564;2022-08-20T11:17:41;4.15;;;1.90;;
53961;SDS011;39868;53.398;6.564;2022-08-20T11:20:11;1.98;;;1.60;;
53961;SDS011;39868;53.398;6.564;2022-08-20T11:22:42;2.83;;;1.80;;
53961;SDS011;39868;53.398;6.564;2022-08-20T11:25:09;3.72;;;2.05;;
53961;SDS011;39868;53.398;6.564;2022-08-20T11:27:39;5.32;;;2.00;;
53961;SDS011;39868;53.398;6.564;2022-08-20T11:30:09;3.38;;;2.15;;
53961;SDS011;39868;53.398;6.564;2022-08-20T11:32:40;5.10;;;2.20;;
53961;SDS011;39868;53.398;6.564;2022-08-20T11:35:08;5.32;;;2.08;;
53961;SDS011;39868;53.398;6.564;2022-08-20T11:37:56;4.68;;;2.00;;
53961;SDS011;39868;53.398;6.564;2022-08-20T11:40:25;3.47;;;1.85;;
53961;SDS011;39868;53.398;6.564;2022-08-20T11:42:54;5.90;;;1.92;;
53961;SDS011;39868;53.398;6.564;2022-08-20T11:45:40;4.70;;;2.13;;
53961;SDS011;39868;53.398;6.564;2022-08-20T11:48:08;4.03;;;1.90;;
53961;SDS011;39868;53.398;6.564;2022-08-20T11:50:36;2.58;;;1.80;;
53961;SDS011;39868;53.398;6.564;2022-08-20T11:53:04;3.75;;;1.90;;
53961;SDS011;39868;53.398;6.564;2022-08-20T11:55:33;5.40;;;1.92;;
53961;SDS011;39868;53.398;6.564;2022-08-20T11:58:02;4.82;;;2.20;;
53961;SDS011;39868;53.398;6.564;2022-08-20T12:00:30;5.13;;;2.35;;
53961;SDS011;39868;53.398;6.564;2022-08-20T12:03:03;5.18;;;1.95;;
53961;SDS011;39868;53.398;6.564;2022-08-20T12:05:36;3.13;;;1.80;;
53961;SDS011;39868;53.398;6.564;2022-08-20T12:08:06;4.82;;;2.35;;
53961;SDS011;39868;53.398;6.564;2022-08-20T12:10:35;4.35;;;2.00;;
53961;SDS011;39868;53.398;6.564;2022-08-20T12:13:04;4.82;;;2.17;;
53961;SDS011;39868;53.398;6.564;2022-08-20T12:15:33;4.38;;;2.17;;
53961;SDS011;39868;53.398;6.564;2022-08-20T12:18:08;4.30;;;1.83;;
53961;SDS011;39868;53.398;6.564;2022-08-20T12:20:36;3.88;;;1.92;;
53961;SDS011;39868;53.398;6.564;2022-08-20T12:23:04;3.72;;;2.58;;
53961;SDS011;39868;53.398;6.564;2022-08-20T12:25:32;5.20;;;2.28;;
53961;SDS011;39868;53.398;6.564;2022-08-20T12:27:59;4.18;;;2.30;;
53961;SDS011;39868;53.398;6.564;2022-08-20T12:30:27;6.00;;;2.40;;
53961;SDS011;39868;53.398;6.564;2022-08-20T12:32:55;2.72;;;2.10;;
53961;SDS011;39868;53.398;6.564;2022-08-20T12:35:23;8.02;;;2.58;;
53961;SDS011;39868;53.398;6.564;2022-08-20T12:37:51;3.25;;;2.28;;
53961;SDS011;39868;53.398;6.564;2022-08-20T12:40:20;3.10;;;1.90;;
53961;SDS011;39868;53.398;6.564;2022-08-20T12:42:59;3.88;;;2.30;;
53961;SDS011;39868;53.398;6.564;2022-08-20T12:45:27;5.43;;;2.63;;
53961;SDS011;39868;53.398;6.564;2022-08-20T12:48:00;6.60;;;2.40;;
53961;SDS011;39868;53.398;6.564;2022-08-20T12:50:30;3.15;;;2.10;;
53961;SDS011;39868;53.398;6.564;2022-08-20T12:52:58;4.63;;;2.53;;
53961;SDS011;39868;53.398;6.564;2022-08-20T12:55:27;3.67;;;2.30;;
53961;SDS011;39868;53.398;6.564;2022-08-20T12:57:55;3.65;;;2.20;;
53961;SDS011;39868;53.398;6.564;2022-08-20T13:00:27;5.88;;;2.58;;
53961;SDS011;39868;53.398;6.564;2022-08-20T13:03:00;6.13;;;2.83;;
53961;SDS011;39868;53.398;6.564;2022-08-20T13:05:30;4.45;;;2.50;;
53961;SDS011;39868;53.398;6.564;2022-08-20T13:07:58;4.93;;;2.90;;
53961;SDS011;39868;53.398;6.564;2022-08-20T13:10:27;6.00;;;2.40;;
53961;SDS011;39868;53.398;6.564;2022-08-20T13:12:57;6.95;;;3.03;;
53961;SDS011;39868;53.398;6.564;2022-08-20T13:15:25;3.67;;;2.25;;
53961;SDS011;39868;53.398;6.564;2022-08-20T13:17:53;3.95;;;3.13;;
53961;SDS011;39868;53.398;6.564;2022-08-20T13:20:22;5.72;;;2.92;;
53961;SDS011;39868;53.398;6.564;2022-08-20T13:23:00;3.03;;;2.72;;
53961;SDS011;39868;53.398;6.564;2022-08-20T13:25:30;4.32;;;2.90;;
53961;SDS011;39868;53.398;6.564;2022-08-20T13:27:59;5.68;;;3.20;;
53961;SDS011;39868;53.398;6.564;2022-08-20T13:30:31;6.13;;;2.47;;
53961;SDS011;39868;53.398;6.564;2022-08-20T13:33:00;4.53;;;2.60;;
53961;SDS011;39868;53.398;6.564;2022-08-20T13:35:28;6.25;;;2.85;;
53961;SDS011;39868;53.398;6.564;2022-08-20T13:37:56;4.10;;;2.80;;
53961;SDS011;39868;53.398;6.564;2022-08-20T13:40:23;6.68;;;3.15;;
53961;SDS011;39868;53.398;6.564;2022-08-20T13:42:51;5.38;;;2.60;;
53961;SDS011;39868;53.398;6.564;2022-08-20T13:45:19;3.72;;;3.10;;
53961;SDS011;39868;53.398;6.564;2022-08-20T13:47:47;4.97;;;2.65;;
53961;SDS011;39868;53.398;6.564;2022-08-20T13:52:47;4.68;;;2.58;;
53961;SDS011;39868;53.398;6.564;2022-08-20T13:55:16;8.85;;;2.83;;
53961;SDS011;39868;53.398;6.564;2022-08-20T13:57:47;6.65;;;2.72;;
53961;SDS011;39868;53.398;6.564;2022-08-20T14:00:17;2.88;;;2.35;;
53961;SDS011;39868;53.398;6.564;2022-08-20T14:02:58;7.10;;;2.50;;
53961;SDS011;39868;53.398;6.564;2022-08-20T14:05:27;6.18;;;2.83;;
53961;SDS011;39868;53.398;6.564;2022-08-20T14:08:02;4.05;;;2.53;;
53961;SDS011;39868;53.398;6.564;2022-08-20T14:10:34;3.72;;;2.25;;
53961;SDS011;39868;53.398;6.564;2022-08-20T14:13:02;5.80;;;2.45;;
53961;SDS011;39868;53.398;6.564;2022-08-20T14:15:32;3.80;;;1.95;;
53961;SDS011;39868;53.398;6.564;2022-08-20T14:18:02;4.03;;;2.13;;
53961;SDS011;39868;53.398;6.564;2022-08-20T14:20:31;4.75;;;2.15;;
53961;SDS011;39868;53.398;6.564;2022-08-20T14:22:59;3.00;;;2.08;;
53961;SDS011;39868;53.398;6.564;2022-08-20T14:25:28;4.90;;;2.25;;
53961;SDS011;39868;53.398;6.564;2022-08-20T14:27:57;2.97;;;2.28;;
53961;SDS011;39868;53.398;6.564;2022-08-20T14:30:34;6.55;;;2.20;;
53961;SDS011;39868;53.398;6.564;2022-08-20T14:33:01;3.60;;;2.28;;
53961;SDS011;39868;53.398;6.564;2022-08-20T14:35:29;4.10;;;2.10;;
53961;SDS011;39868;53.398;6.564;2022-08-20T14:37:59;6.07;;;2.10;;
53961;SDS011;39868;53.398;6.564;2022-08-20T14:40:30;4.53;;;2.13;;
53961;SDS011;39868;53.398;6.564;2022-08-20T14:42:59;3.63;;;1.95;;
53961;SDS011;39868;53.398;6.564;2022-08-20T14:45:27;4.93;;;2.15;;
53961;SDS011;39868;53.398;6.564;2022-08-20T14:48:14;3.58;;;1.92;;
53961;SDS011;39868;53.398;6.564;2022-08-20T14:50:42;3.30;;;1.83;;
53961;SDS011;39868;53.398;6.564;2022-08-20T14:53:10;4.03;;;2.00;;
53961;SDS011;39868;53.398;6.564;2022-08-20T14:55:37;2.03;;;1.80;;
53961;SDS011;39868;53.398;6.564;2022-08-20T14:58:06;4.28;;;2.10;;
53961;SDS011;39868;53.398;6.564;2022-08-20T15:00:35;4.15;;;2.05;;
53961;SDS011;39868;53.398;6.564;2022-08-20T15:03:03;4.15;;;2.10;;
53961;SDS011;39868;53.398;6.564;2022-08-20T15:05:31;5.38;;;2.45;;
53961;SDS011;39868;53.398;6.564;2022-08-20T15:07:59;3.08;;;2.15;;
53961;SDS011;39868;53.398;6.564;2022-08-20T15:10:29;5.45;;;2.28;;
53961;SDS011;39868;53.398;6.564;2022-08-20T15:12:58;4.40;;;2.37;;
53961;SDS011;39868;53.398;6.564;2022-08-20T15:15:28;4.68;;;2.20;;
53961;SDS011;39868;53.398;6.564;2022-08-20T15:17:56;4.82;;;2.50;;
53961;SDS011;39868;53.398;6.564;2022-08-20T15:20:30;4.78;;;2.35;;
53961;SDS011;39868;53.398;6.564;2022-08-20T15:22:59;7.60;;;2.95;;
53961;SDS011;39868;53.398;6.564;2022-08-20T15:25:28;5.57;;;2.70;;
53961;SDS011;39868;53.398;6.564;2022-08-20T15:28:03;5.32;;;2.45;;
53961;SDS011;39868;53.398;6.564;2022-08-20T15:30:33;5.95;;;2.85;;
53961;SDS011;39868;53.398;6.564;2022-08-20T15:33:01;6.10;;;3.00;;
53961;SDS011;39868;53.398;6.564;2022-08-20T15:35:29;5.13;;;2.75;;